Airfield :
LOGIN :

Register | Disclaimer

   EN    FR    IT 

 










Legend :    VFR   Marginal VFR   IFR   Intensive IFR   Very Intensive IFR
Visi :
Ceiling :
>= 8 km
>= 3000ft
5 to 8 km
1000 to 3000 ft
1500m to 5 km
500 to 1000 ft
800 to 1500m
200 to 500 ft
< 800m
< 200 ft
Symbols :   Thunderstorms  Fog  Heavy snow  Heavy precipitations  Wind > 20 kt
SIGMETs :     Misc.  Thunderstorms  Icing  Turbulence  Mountain Waves  Volcanic Ashes







- Airport Elevation : 600 ft
- IATA code : VIE


LOWW - Vienna Schwechat

CURRENT METAR :
  • 252120Z 32006KT CAVOK 07/M01 Q1021 NOSIG

EXPIRED METARs :
  • 252050Z 33009KT CAVOK 08/M00 Q1021 NOSIG
  • 252020Z 31008KT CAVOK 08/M01 Q1021 NOSIG
  • 251950Z 31007KT CAVOK 08/M02 Q1021 NOSIG
  • 251920Z 31004KT CAVOK 09/M02 Q1021 NOSIG
  • 251850Z 30005KT CAVOK 10/M01 Q1021 NOSIG

TAF TAF LOWW
Valid from the 25 at 18:00 until the 27 at 00:00 UTC


251715Z 2518/2624 36006KT CAVOK TX11/2613Z TN01/2604Z
TEMPO 2607/2617 01013KT
No reported NOTAMs for that airfield.



MET'MAP, your aeronautical weather chart ! - Copyright ORBIFLY December 2007 - Disclaimer

ORBIFLY MET'MAP TEAM :

Programming & Development : Alexandra Zaïnal
Concept & Development : Baudouin d'Aumeries
Co-Development & Prog : Marc-Olivier Méhu
Technical & hardware support : Manuel Goepfert

Contact : metmap@orbifly.com




SOURCES & CREDITS :

   NOAA